createdAt,value
2023-04-01T00:00:48.567Z,974.10
2023-04-01T00:01:48.561Z,974.25
2023-04-01T00:02:48.752Z,974.24
2023-04-01T00:03:48.654Z,974.13
2023-04-01T00:04:48.677Z,974.15
2023-04-01T00:05:48.505Z,974.20
2023-04-01T00:06:48.500Z,974.19
2023-04-01T00:07:48.482Z,974.07
2023-04-01T00:08:48.484Z,974.14
2023-04-01T00:09:48.461Z,974.14
2023-04-01T00:10:48.456Z,974.11
2023-04-01T00:11:48.443Z,974.10
2023-04-01T00:12:48.431Z,974.13
2023-04-01T00:13:48.450Z,974.05
2023-04-01T00:14:48.410Z,974.12
2023-04-01T00:15:48.434Z,974.16
2023-04-01T00:16:48.447Z,974.17
2023-04-01T00:17:48.425Z,974.06
2023-04-01T00:18:48.510Z,974.16
2023-04-01T00:19:48.356Z,974.06
2023-04-01T00:20:48.353Z,974.05
2023-04-01T00:21:48.332Z,974.00
2023-04-01T00:22:48.324Z,974.04
2023-04-01T00:23:48.321Z,974.02
2023-04-01T00:24:48.315Z,973.98
2023-04-01T00:25:48.291Z,974.00
2023-04-01T00:26:48.282Z,974.00
2023-04-01T00:27:48.277Z,974.03
2023-04-01T00:28:48.272Z,974.04
2023-04-01T00:29:48.253Z,973.98
2023-04-01T00:30:48.259Z,974.06
2023-04-01T00:31:48.243Z,974.12
2023-04-01T00:32:48.287Z,974.08
2023-04-01T00:33:48.229Z,974.10
2023-04-01T00:34:48.210Z,974.04
2023-04-01T00:35:48.214Z,974.11
2023-04-01T00:36:48.185Z,974.08
2023-04-01T00:37:48.172Z,974.10
2023-04-01T00:38:48.179Z,974.08
2023-04-01T00:39:48.159Z,974.06
2023-04-01T00:40:48.153Z,974.03
2023-04-01T00:41:48.141Z,974.04
2023-04-01T00:42:48.122Z,974.05
2023-04-01T00:43:48.118Z,974.07
2023-04-01T00:44:48.101Z,973.98
2023-04-01T00:45:48.086Z,974.03
2023-04-01T00:46:48.094Z,973.99
2023-04-01T00:47:48.108Z,974.01
2023-04-01T00:48:48.082Z,973.99
2023-04-01T00:49:48.051Z,973.96
2023-04-01T00:50:48.051Z,974.00
2023-04-01T00:51:48.038Z,973.89
2023-04-01T00:52:48.019Z,973.95
2023-04-01T00:53:48.022Z,974.02
2023-04-01T00:54:48.001Z,973.98
2023-04-01T00:55:47.984Z,974.01
2023-04-01T00:56:48.007Z,973.99
2023-04-01T00:57:47.966Z,974.09
2023-04-01T00:58:47.976Z,973.97
2023-04-01T00:59:47.953Z,973.95
2023-04-01T01:00:47.951Z,974.07
2023-04-01T01:01:47.956Z,973.95
2023-04-01T01:02:48.001Z,973.94
2023-04-01T01:03:47.922Z,973.95
2023-04-01T01:04:47.897Z,973.96
2023-04-01T01:05:49.495Z,973.93
2023-04-01T01:06:47.879Z,973.93
2023-04-01T01:07:47.865Z,973.97
2023-04-01T01:08:47.866Z,974.05
2023-04-01T01:09:47.847Z,973.94
2023-04-01T01:10:47.834Z,973.99
2023-04-01T01:11:47.826Z,973.88
2023-04-01T01:12:47.816Z,973.93
2023-04-01T01:13:47.825Z,974.00
2023-04-01T01:14:47.794Z,973.99
2023-04-01T01:15:47.795Z,973.87
2023-04-01T01:16:47.783Z,973.88
2023-04-01T01:17:48.983Z,973.86
2023-04-01T01:18:48.889Z,973.82
2023-04-01T01:19:48.863Z,973.94
2023-04-01T01:20:48.866Z,973.86
2023-04-01T01:21:48.842Z,973.81
2023-04-01T01:22:48.836Z,973.90
2023-04-01T01:23:48.841Z,973.89
2023-04-01T01:24:48.818Z,973.85
2023-04-01T01:25:48.797Z,973.79
2023-04-01T01:26:48.792Z,973.88
2023-04-01T01:27:48.796Z,973.88
2023-04-01T01:28:48.778Z,973.78
2023-04-01T01:29:48.758Z,973.91
2023-04-01T01:30:48.781Z,973.82
2023-04-01T01:31:48.746Z,973.80
2023-04-01T01:32:48.756Z,973.83
2023-04-01T01:33:48.749Z,973.73
2023-04-01T01:34:48.710Z,973.83
2023-04-01T01:35:48.745Z,973.85
2023-04-01T01:36:48.698Z,973.86
2023-04-01T01:37:48.686Z,973.80
2023-04-01T01:38:48.689Z,973.84
2023-04-01T01:39:48.736Z,973.87
2023-04-01T01:40:48.656Z,973.87
2023-04-01T01:41:48.644Z,973.83
2023-04-01T01:42:48.632Z,973.84
2023-04-01T01:43:48.633Z,973.95
2023-04-01T01:44:48.631Z,973.86
2023-04-01T01:45:48.646Z,973.95
2023-04-01T01:46:48.591Z,973.86
2023-04-01T01:47:48.612Z,973.90
2023-04-01T01:48:48.584Z,973.84
2023-04-01T01:49:48.565Z,973.79
2023-04-01T01:50:48.564Z,973.88
2023-04-01T01:51:48.550Z,973.89
2023-04-01T01:52:48.561Z,973.84
2023-04-01T01:53:48.557Z,973.85
2023-04-01T01:54:48.532Z,973.84
2023-04-01T01:55:48.510Z,973.81
2023-04-01T01:56:48.520Z,973.79
2023-04-01T01:57:48.498Z,973.88
2023-04-01T01:58:48.496Z,973.80
2023-04-01T01:59:48.489Z,973.91
2023-04-01T02:00:48.475Z,973.93
2023-04-01T02:01:48.476Z,973.93
2023-04-01T02:02:48.595Z,973.90
2023-04-01T02:03:48.442Z,973.91
2023-04-01T02:04:48.559Z,974.03
2023-04-01T02:05:48.418Z,973.97
2023-04-01T02:06:48.419Z,973.96
2023-04-01T02:07:48.412Z,974.01
2023-04-01T02:08:48.393Z,973.89
2023-04-01T02:09:48.391Z,973.92
2023-04-01T02:10:48.367Z,973.96
2023-04-01T02:11:48.362Z,973.92
2023-04-01T02:12:48.337Z,973.87
2023-04-01T02:13:48.335Z,973.82
2023-04-01T02:14:48.333Z,973.84
2023-04-01T02:15:48.352Z,973.93
2023-04-01T02:16:48.304Z,973.90
2023-04-01T02:17:48.300Z,973.93
2023-04-01T02:18:48.282Z,973.99
2023-04-01T02:19:48.285Z,973.88
2023-04-01T02:20:48.281Z,973.88
2023-04-01T02:21:48.250Z,973.96
2023-04-01T02:22:48.242Z,973.89
2023-04-01T02:23:48.230Z,973.89
2023-04-01T02:24:48.243Z,973.85
2023-04-01T02:25:48.228Z,973.91
2023-04-01T02:26:48.207Z,973.87
2023-04-01T02:27:48.220Z,973.89
2023-04-01T02:28:48.176Z,973.95
2023-04-01T02:29:48.190Z,973.92
2023-04-01T02:30:48.161Z,973.88
2023-04-01T02:31:48.167Z,973.82
2023-04-01T02:32:48.183Z,973.82
2023-04-01T02:33:48.129Z,973.89
2023-04-01T02:34:48.127Z,973.89
2023-04-01T02:35:48.146Z,973.94
2023-04-01T02:36:48.097Z,973.87
2023-04-01T02:37:48.097Z,973.84
2023-04-01T02:38:48.090Z,973.86
2023-04-01T02:39:48.083Z,973.86
2023-04-01T02:40:48.067Z,973.92
2023-04-01T02:41:48.053Z,973.97
2023-04-01T02:42:48.051Z,973.88
2023-04-01T02:43:48.036Z,973.80
2023-04-01T02:44:48.045Z,973.81
2023-04-01T02:45:48.027Z,973.82
2023-04-01T02:46:48.048Z,973.82
2023-04-01T02:47:48.032Z,973.87
2023-04-01T02:48:47.993Z,973.89
2023-04-01T02:49:47.980Z,973.81
2023-04-01T02:50:47.987Z,973.84
2023-04-01T02:51:47.990Z,973.88
2023-04-01T02:52:47.942Z,973.90
2023-04-01T02:53:47.961Z,973.91
2023-04-01T02:54:47.946Z,973.88
2023-04-01T02:55:47.911Z,973.81
2023-04-01T02:56:48.975Z,973.88
2023-04-01T02:57:47.899Z,973.92
2023-04-01T02:58:47.896Z,973.88
2023-04-01T02:59:47.893Z,973.98
2023-04-01T03:00:47.926Z,973.83
2023-04-01T03:01:48.861Z,973.92
2023-04-01T03:02:47.899Z,973.94
2023-04-01T03:03:47.849Z,973.92
2023-04-01T03:04:47.843Z,973.90
2023-04-01T03:05:47.821Z,973.87
2023-04-01T03:06:47.834Z,973.91
2023-04-01T03:07:47.803Z,973.92
2023-04-01T03:08:47.805Z,973.92
2023-04-01T03:09:47.808Z,973.91
2023-04-01T03:10:47.780Z,973.89
2023-04-01T03:11:47.777Z,973.97
2023-04-01T03:12:47.755Z,973.91
2023-04-01T03:13:47.760Z,973.95
2023-04-01T03:14:47.781Z,973.92
2023-04-01T03:15:47.722Z,974.03
2023-04-01T03:16:47.728Z,973.93
2023-04-01T03:17:47.771Z,973.99
2023-04-01T03:18:47.689Z,973.97
2023-04-01T03:19:47.680Z,973.94
2023-04-01T03:20:47.689Z,973.98
2023-04-01T03:21:47.665Z,973.94
2023-04-01T03:22:47.670Z,973.96
2023-04-01T03:23:47.644Z,973.84
2023-04-01T03:24:47.651Z,973.89
2023-04-01T03:25:47.627Z,973.93
2023-04-01T03:26:47.632Z,973.84
2023-04-01T03:27:47.620Z,973.90
2023-04-01T03:28:47.599Z,973.94
2023-04-01T03:29:47.623Z,973.89
2023-04-01T03:30:47.612Z,973.88
2023-04-01T03:31:47.557Z,973.96
2023-04-01T03:32:47.575Z,974.01
2023-04-01T03:33:47.542Z,973.88
2023-04-01T03:34:47.540Z,974.04
2023-04-01T03:35:47.531Z,974.00
2023-04-01T03:36:47.558Z,973.98
2023-04-01T03:37:47.491Z,973.97
2023-04-01T03:38:48.501Z,974.10
2023-04-01T03:39:47.498Z,974.01
2023-04-01T03:40:47.489Z,973.96
2023-04-01T03:41:47.475Z,973.97
2023-04-01T03:42:47.482Z,973.98
2023-04-01T03:43:47.451Z,974.01
2023-04-01T03:44:47.436Z,973.93
2023-04-01T03:45:47.490Z,973.96
2023-04-01T03:46:47.421Z,974.04
2023-04-01T03:47:47.432Z,974.00
2023-04-01T03:48:47.400Z,974.07
2023-04-01T03:49:47.396Z,974.03
2023-04-01T03:50:47.384Z,974.06
2023-04-01T03:51:47.377Z,974.12
2023-04-01T03:52:47.354Z,974.01
2023-04-01T03:53:47.346Z,973.94
2023-04-01T03:54:47.326Z,974.02
2023-04-01T03:55:47.340Z,974.04
2023-04-01T03:56:47.350Z,974.06
2023-04-01T03:57:47.315Z,974.09
2023-04-01T03:58:47.302Z,974.09
2023-04-01T03:59:47.287Z,974.11
2023-04-01T04:00:47.290Z,974.07
2023-04-01T04:01:47.270Z,974.09
2023-04-01T04:02:47.374Z,974.07
2023-04-01T04:03:47.329Z,974.11
2023-04-01T04:04:47.314Z,974.15
2023-04-01T04:05:47.240Z,974.12
2023-04-01T04:06:47.222Z,974.06
2023-04-01T04:07:47.218Z,974.08
2023-04-01T04:08:47.197Z,974.09
2023-04-01T04:09:47.185Z,974.08
2023-04-01T04:10:47.186Z,974.10
2023-04-01T04:11:47.179Z,974.12
2023-04-01T04:12:47.149Z,974.03
2023-04-01T04:13:47.147Z,974.13
2023-04-01T04:14:47.139Z,974.08
2023-04-01T04:15:47.164Z,974.12
2023-04-01T04:16:47.116Z,974.12
2023-04-01T04:17:47.137Z,974.07
2023-04-01T04:18:47.099Z,974.15
2023-04-01T04:19:47.179Z,974.09
2023-04-01T04:20:47.080Z,974.08
2023-04-01T04:21:47.080Z,974.12
2023-04-01T04:22:47.063Z,974.06
2023-04-01T04:23:47.060Z,974.17
2023-04-01T04:24:47.031Z,974.09
2023-04-01T04:25:47.036Z,974.07
2023-04-01T04:26:47.006Z,974.14
2023-04-01T04:27:48.014Z,974.10
2023-04-01T04:28:46.992Z,974.12
2023-04-01T04:29:46.980Z,974.11
2023-04-01T04:30:46.968Z,974.02
2023-04-01T04:31:47.034Z,974.07
2023-04-01T04:32:47.005Z,974.09
2023-04-01T04:33:46.946Z,974.13
2023-04-01T04:34:46.950Z,974.09
2023-04-01T04:35:46.928Z,974.06
2023-04-01T04:36:46.941Z,974.10
2023-04-01T04:37:46.894Z,974.13
2023-04-01T04:38:46.896Z,974.10
2023-04-01T04:39:47.879Z,974.16
2023-04-01T04:40:46.870Z,974.10
2023-04-01T04:41:46.875Z,974.14
2023-04-01T04:42:46.847Z,974.08
2023-04-01T04:43:46.857Z,974.12
2023-04-01T04:44:46.823Z,974.13
2023-04-01T04:45:46.824Z,974.12
2023-04-01T04:46:46.861Z,974.15
2023-04-01T04:47:46.846Z,974.15
2023-04-01T04:48:46.786Z,974.20
2023-04-01T04:49:46.776Z,974.17
2023-04-01T04:50:46.764Z,974.15
2023-04-01T04:51:46.763Z,974.15
2023-04-01T04:52:46.750Z,974.17
2023-04-01T04:53:46.741Z,974.12
2023-04-01T04:54:46.729Z,974.12
2023-04-01T04:55:46.724Z,974.14
2023-04-01T04:56:46.792Z,974.12
2023-04-01T04:57:46.699Z,974.18
2023-04-01T04:58:46.678Z,974.17
2023-04-01T04:59:46.674Z,974.14
2023-04-01T05:00:46.672Z,974.12
2023-04-01T05:01:46.924Z,974.11
2023-04-01T05:02:46.800Z,974.12
2023-04-01T05:03:46.667Z,974.16
2023-04-01T05:04:46.637Z,974.14
2023-04-01T05:05:46.614Z,974.15
2023-04-01T05:06:46.616Z,974.16
2023-04-01T05:07:46.609Z,974.11
2023-04-01T05:08:46.583Z,974.15
2023-04-01T05:09:46.581Z,974.09
2023-04-01T05:10:46.592Z,974.21
2023-04-01T05:11:46.564Z,974.16
2023-04-01T05:12:46.552Z,974.20
2023-04-01T05:13:46.545Z,974.14
2023-04-01T05:14:46.531Z,974.10
2023-04-01T05:15:46.512Z,974.13
2023-04-01T05:16:46.551Z,974.18
2023-04-01T05:17:46.579Z,974.13
2023-04-01T05:18:46.484Z,974.13
2023-04-01T05:19:46.484Z,974.17
2023-04-01T05:20:46.465Z,974.11
2023-04-01T05:21:46.471Z,974.11
2023-04-01T05:22:46.443Z,974.14
2023-04-01T05:23:46.445Z,974.24
2023-04-01T05:24:46.425Z,974.14
2023-04-01T05:25:46.477Z,974.18
2023-04-01T05:26:46.428Z,974.16
2023-04-01T05:27:46.392Z,974.16
2023-04-01T05:28:46.388Z,974.16
2023-04-01T05:29:46.379Z,974.19
2023-04-01T05:30:46.374Z,974.07
2023-04-01T05:31:46.362Z,974.15
2023-04-01T05:32:46.389Z,974.14
2023-04-01T05:33:46.338Z,974.13
2023-04-01T05:34:46.322Z,974.09
2023-04-01T05:35:46.337Z,974.25
2023-04-01T05:36:46.305Z,974.13
2023-04-01T05:37:46.303Z,974.17
2023-04-01T05:38:46.279Z,974.13
2023-04-01T05:39:46.284Z,974.14
2023-04-01T05:40:46.266Z,974.09
2023-04-01T05:41:46.260Z,974.11
2023-04-01T05:42:46.358Z,974.14
2023-04-01T05:43:46.258Z,974.11
2023-04-01T05:44:46.230Z,974.08
2023-04-01T05:45:46.248Z,974.22
2023-04-01T05:46:46.203Z,974.12
2023-04-01T05:47:46.245Z,974.13
2023-04-01T05:48:46.187Z,974.12
2023-04-01T05:49:46.174Z,974.08
2023-04-01T05:50:46.168Z,974.10
2023-04-01T05:51:46.159Z,974.18
2023-04-01T05:52:46.168Z,974.15
2023-04-01T05:53:46.140Z,974.24
2023-04-01T05:54:46.125Z,974.15
2023-04-01T05:55:46.113Z,974.07
2023-04-01T05:56:47.654Z,974.15
2023-04-01T05:57:47.126Z,974.08
2023-04-01T05:58:46.082Z,974.19
2023-04-01T05:59:46.071Z,974.07
2023-04-01T06:00:46.832Z,974.15
2023-04-01T06:01:46.064Z,974.10
2023-04-01T06:02:46.099Z,974.17
2023-04-01T06:03:46.161Z,974.14
2023-04-01T06:04:46.174Z,974.11
2023-04-01T06:05:46.005Z,974.19
2023-04-01T06:06:47.007Z,974.16
2023-04-01T06:07:46.008Z,974.22
2023-04-01T06:08:45.995Z,974.12
2023-04-01T06:09:45.969Z,974.23
2023-04-01T06:10:45.966Z,974.14
2023-04-01T06:11:45.957Z,974.19
2023-04-01T06:12:45.956Z,974.19
2023-04-01T06:13:45.946Z,974.19
2023-04-01T06:14:46.020Z,974.17
2023-04-01T06:15:45.951Z,974.16
2023-04-01T06:16:45.962Z,974.25
2023-04-01T06:17:46.919Z,974.18
2023-04-01T06:18:45.978Z,974.24
2023-04-01T06:19:50.405Z,974.22
2023-04-01T06:20:45.895Z,974.38
2023-04-01T06:21:45.882Z,974.26
2023-04-01T06:22:45.967Z,974.29
2023-04-01T06:23:46.420Z,974.38
2023-04-01T06:24:45.856Z,974.27
2023-04-01T06:25:45.848Z,974.27
2023-04-01T06:26:45.833Z,974.32
2023-04-01T06:27:45.831Z,974.22
2023-04-01T06:28:45.860Z,974.33
2023-04-01T06:29:45.791Z,974.25
2023-04-01T06:30:45.817Z,974.31
2023-04-01T06:31:45.919Z,974.33
2023-04-01T06:32:46.816Z,974.30
2023-04-01T06:33:45.770Z,974.30
2023-04-01T06:34:45.791Z,974.47
2023-04-01T06:35:45.818Z,974.37
2023-04-01T06:36:45.740Z,974.38
2023-04-01T06:37:45.748Z,974.38
2023-04-01T06:38:45.879Z,974.43
2023-04-01T06:39:45.706Z,974.34
2023-04-01T06:40:45.722Z,974.34
2023-04-01T06:41:45.664Z,974.45
2023-04-01T06:42:45.683Z,974.28
2023-04-01T06:43:45.687Z,974.33
2023-04-01T06:44:45.665Z,974.40
2023-04-01T06:45:45.670Z,974.38
2023-04-01T06:46:45.667Z,974.32
2023-04-01T06:47:45.822Z,974.31
2023-04-01T06:48:45.633Z,974.34
2023-04-01T06:49:46.496Z,974.37
2023-04-01T06:50:45.572Z,974.34
2023-04-01T06:51:45.600Z,974.36
2023-04-01T06:52:45.597Z,974.28
2023-04-01T06:53:45.574Z,974.31
2023-04-01T06:54:45.553Z,974.39
2023-04-01T06:55:45.520Z,974.33
2023-04-01T06:56:45.578Z,974.38
2023-04-01T06:57:45.500Z,974.37
2023-04-01T06:58:45.528Z,974.29
2023-04-01T06:59:45.516Z,974.37
2023-04-01T07:00:45.476Z,974.37
2023-04-01T07:01:45.507Z,974.33
2023-04-01T07:02:45.485Z,974.39
2023-04-01T07:03:45.481Z,974.30
2023-04-01T07:04:45.466Z,974.37
2023-04-01T07:05:45.425Z,974.33
2023-04-01T07:06:45.421Z,974.28
2023-04-01T07:07:45.420Z,974.39
2023-04-01T07:08:45.428Z,974.29
2023-04-01T07:09:45.393Z,974.42
2023-04-01T07:10:45.381Z,974.30
2023-04-01T07:11:45.605Z,974.29
2023-04-01T07:12:45.369Z,974.33
2023-04-01T07:13:45.363Z,974.32
2023-04-01T07:14:45.337Z,974.33
2023-04-01T07:15:45.328Z,974.31
2023-04-01T07:16:45.361Z,974.34
2023-04-01T07:17:45.333Z,974.32
2023-04-01T07:18:45.360Z,974.30
2023-04-01T07:19:45.297Z,974.38
2023-04-01T07:20:45.280Z,974.32
2023-04-01T07:21:45.269Z,974.37
2023-04-01T07:22:45.252Z,974.40
2023-04-01T07:23:45.266Z,974.34
2023-04-01T07:24:45.259Z,974.36
2023-04-01T07:25:45.648Z,974.34
2023-04-01T07:26:45.634Z,974.37
2023-04-01T07:27:45.235Z,974.47
2023-04-01T07:28:45.202Z,974.39
2023-04-01T07:29:45.189Z,974.37
2023-04-01T07:30:45.179Z,974.46
2023-04-01T07:31:45.177Z,974.34
2023-04-01T07:32:45.197Z,974.44
2023-04-01T07:33:45.163Z,974.43
2023-04-01T07:34:45.125Z,974.45
2023-04-01T07:35:45.157Z,974.46
2023-04-01T07:36:45.126Z,974.52
2023-04-01T07:37:45.105Z,974.53
2023-04-01T07:38:45.116Z,974.46
2023-04-01T07:39:45.094Z,974.48
2023-04-01T07:40:45.069Z,974.50
2023-04-01T07:41:45.066Z,974.46
2023-04-01T07:42:45.044Z,974.51
2023-04-01T07:43:45.057Z,974.61
2023-04-01T07:44:45.063Z,974.47
2023-04-01T07:45:45.032Z,974.50
2023-04-01T07:46:45.159Z,974.57
2023-04-01T07:47:45.036Z,974.58
2023-04-01T07:48:44.992Z,974.61
2023-04-01T07:49:44.994Z,974.49
2023-04-01T07:50:46.025Z,974.49
2023-04-01T07:51:44.952Z,974.61
2023-04-01T07:52:44.950Z,974.60
2023-04-01T07:53:44.956Z,974.61
2023-04-01T07:54:44.916Z,974.69
2023-04-01T07:55:44.901Z,974.59
2023-04-01T07:56:44.940Z,974.58
2023-04-01T07:57:45.883Z,974.62
2023-04-01T07:58:44.887Z,974.60
2023-04-01T07:59:44.883Z,974.55
2023-04-01T08:00:44.862Z,974.62
2023-04-01T08:01:44.847Z,974.70
2023-04-01T08:02:44.878Z,974.63
2023-04-01T08:03:45.047Z,974.69
2023-04-01T08:04:44.870Z,974.63
2023-04-01T08:05:45.703Z,974.64
2023-04-01T08:06:44.792Z,974.67
2023-04-01T08:07:44.784Z,974.64
2023-04-01T08:08:44.783Z,974.70
2023-04-01T08:09:44.783Z,974.68
2023-04-01T08:10:44.752Z,974.65
2023-04-01T08:11:44.747Z,974.72
2023-04-01T08:12:44.732Z,974.75
2023-04-01T08:13:44.731Z,974.77
2023-04-01T08:14:44.719Z,974.71
2023-04-01T08:15:44.711Z,974.70
2023-04-01T08:16:44.736Z,974.77
2023-04-01T08:17:44.718Z,974.78
2023-04-01T08:18:44.684Z,974.71
2023-04-01T08:19:44.690Z,974.83
2023-04-01T08:20:44.632Z,974.85
2023-04-01T08:21:44.663Z,974.76
2023-04-01T08:22:44.621Z,974.67
2023-04-01T08:23:44.605Z,974.82
2023-04-01T08:24:48.002Z,974.78
2023-04-01T08:25:45.590Z,974.79
2023-04-01T08:26:44.577Z,974.77
2023-04-01T08:27:44.588Z,974.82
2023-04-01T08:28:44.557Z,974.85
2023-04-01T08:29:44.579Z,974.83
2023-04-01T08:30:44.550Z,974.79
2023-04-01T08:31:44.607Z,974.81
2023-04-01T08:32:44.524Z,974.76
2023-04-01T08:33:44.502Z,974.87
2023-04-01T08:34:44.504Z,974.88
2023-04-01T08:35:44.712Z,974.85
2023-04-01T08:36:44.481Z,974.83
2023-04-01T08:37:44.471Z,974.86
2023-04-01T08:38:44.465Z,974.87
2023-04-01T08:39:44.446Z,974.88
2023-04-01T08:40:44.417Z,974.85
2023-04-01T08:41:44.428Z,974.84
2023-04-01T08:42:44.432Z,974.85
2023-04-01T08:43:44.401Z,974.76
2023-04-01T08:44:44.404Z,974.76
2023-04-01T08:45:44.419Z,974.70
2023-04-01T08:46:44.370Z,974.75
2023-04-01T08:47:44.432Z,974.89
2023-04-01T08:48:44.343Z,974.82
2023-04-01T08:49:44.359Z,974.75
2023-04-01T08:50:44.342Z,974.79
2023-04-01T08:51:44.315Z,974.76
2023-04-01T08:52:44.293Z,974.71
2023-04-01T08:53:44.316Z,974.79
2023-04-01T08:54:44.305Z,974.74
2023-04-01T08:55:44.272Z,974.78
2023-04-01T08:56:44.271Z,974.76
2023-04-01T08:57:44.250Z,974.77
2023-04-01T08:58:44.257Z,974.76
2023-04-01T08:59:44.239Z,974.77
2023-04-01T09:00:44.229Z,974.79
2023-04-01T09:01:44.210Z,974.82
2023-04-01T09:02:44.341Z,974.72
2023-04-01T09:03:44.303Z,974.79
2023-04-01T09:04:44.172Z,974.74
2023-04-01T09:05:44.149Z,974.74
2023-04-01T09:06:44.145Z,974.77
2023-04-01T09:07:44.137Z,974.77
2023-04-01T09:08:45.121Z,974.83
2023-04-01T09:09:44.140Z,974.84
2023-04-01T09:10:44.116Z,974.77
2023-04-01T09:11:44.107Z,974.80
2023-04-01T09:12:44.078Z,974.85
2023-04-01T09:13:44.070Z,974.78
2023-04-01T09:14:44.075Z,974.87
2023-04-01T09:15:44.081Z,974.89
2023-04-01T09:16:44.072Z,974.90
2023-04-01T09:17:44.066Z,974.83
2023-04-01T09:18:44.029Z,974.93
2023-04-01T09:19:44.031Z,974.86
2023-04-01T09:20:44.000Z,974.87
2023-04-01T09:21:43.994Z,974.88
2023-04-01T09:22:43.977Z,974.88
2023-04-01T09:23:43.964Z,974.95
2023-04-01T09:24:43.976Z,974.85
2023-04-01T09:25:43.950Z,974.80
2023-04-01T09:26:43.942Z,974.93
2023-04-01T09:27:43.926Z,974.90
2023-04-01T09:28:43.944Z,974.94
2023-04-01T09:29:43.919Z,974.89
2023-04-01T09:30:43.900Z,974.99
2023-04-01T09:31:43.982Z,974.96
2023-04-01T09:32:43.895Z,974.89
2023-04-01T09:33:43.864Z,974.91
2023-04-01T09:34:43.869Z,974.92
2023-04-01T09:35:43.892Z,974.99
2023-04-01T09:36:43.833Z,974.95
2023-04-01T09:37:43.833Z,975.01
2023-04-01T09:38:43.828Z,974.95
2023-04-01T09:39:43.890Z,975.00
2023-04-01T09:40:43.824Z,975.00
2023-04-01T09:41:43.809Z,974.99
2023-04-01T09:42:43.831Z,975.09
2023-04-01T09:43:43.777Z,975.04
2023-04-01T09:44:43.810Z,975.08
2023-04-01T09:45:43.772Z,975.02
2023-04-01T09:46:43.881Z,975.01
2023-04-01T09:47:43.891Z,975.12
2023-04-01T09:48:44.422Z,975.12
2023-04-01T09:49:43.731Z,975.11
2023-04-01T09:50:43.728Z,975.03
2023-04-01T09:51:43.716Z,975.05
2023-04-01T09:52:45.352Z,975.04
2023-04-01T09:53:43.705Z,975.00
2023-04-01T09:54:43.695Z,974.98
2023-04-01T09:55:43.690Z,975.01
2023-04-01T09:56:43.635Z,974.98
2023-04-01T09:57:44.643Z,975.04
2023-04-01T09:58:44.231Z,975.04
2023-04-01T09:59:43.645Z,975.10
2023-04-01T10:00:43.640Z,975.09
2023-04-01T10:01:43.677Z,975.06
2023-04-01T10:02:43.680Z,975.10
2023-04-01T10:03:43.593Z,975.09
2023-04-01T10:04:43.569Z,975.10
2023-04-01T10:05:43.579Z,975.07
2023-04-01T10:06:43.551Z,975.11
2023-04-01T10:07:43.540Z,975.09
2023-04-01T10:08:43.535Z,975.13
2023-04-01T10:09:43.531Z,975.14
2023-04-01T10:10:43.530Z,975.17
2023-04-01T10:11:43.513Z,975.19
2023-04-01T10:12:43.516Z,975.20
2023-04-01T10:13:43.492Z,975.10
2023-04-01T10:14:43.469Z,975.22
2023-04-01T10:15:43.497Z,975.07
2023-04-01T10:16:43.529Z,975.12
2023-04-01T10:17:43.503Z,975.11
2023-04-01T10:18:43.440Z,975.17
2023-04-01T10:19:43.443Z,975.12
2023-04-01T10:20:43.429Z,975.15
2023-04-01T10:21:43.428Z,975.18
2023-04-01T10:22:43.421Z,975.26
2023-04-01T10:23:43.403Z,975.17
2023-04-01T10:24:43.378Z,975.12
2023-04-01T10:25:43.386Z,975.10
2023-04-01T10:26:43.363Z,975.19
2023-04-01T10:27:43.368Z,975.15
2023-04-01T10:28:43.330Z,975.13
2023-04-01T10:29:43.362Z,975.15
2023-04-01T10:30:43.337Z,975.10
2023-04-01T10:31:43.360Z,975.09
2023-04-01T10:32:43.642Z,975.17
2023-04-01T10:33:43.288Z,975.16
2023-04-01T10:34:43.276Z,975.13
2023-04-01T10:35:43.310Z,975.13
2023-04-01T10:36:44.263Z,975.09
2023-04-01T10:37:43.262Z,975.17
2023-04-01T10:38:43.299Z,975.22
2023-04-01T10:39:43.248Z,975.21
2023-04-01T10:40:43.239Z,975.21
2023-04-01T10:41:43.181Z,975.20
2023-04-01T10:42:43.158Z,975.16
2023-04-01T10:43:43.158Z,975.17
2023-04-01T10:44:43.138Z,975.18
2023-04-01T10:45:43.226Z,975.17
2023-04-01T10:46:43.137Z,975.11
2023-04-01T10:47:43.138Z,975.18
2023-04-01T10:48:43.117Z,975.14
2023-04-01T10:49:43.097Z,975.09
2023-04-01T10:50:43.083Z,975.10
2023-04-01T10:51:43.074Z,975.16
2023-04-01T10:52:43.062Z,975.14
2023-04-01T10:53:43.054Z,975.18
2023-04-01T10:54:43.033Z,975.17
2023-04-01T10:55:43.047Z,975.17
2023-04-01T10:56:43.021Z,975.12
2023-04-01T10:57:43.004Z,975.10
2023-04-01T10:58:42.990Z,975.14
2023-04-01T10:59:43.015Z,975.14
2023-04-01T11:00:43.051Z,975.28
2023-04-01T11:01:43.112Z,975.18
2023-04-01T11:02:43.048Z,975.16
2023-04-01T11:03:43.037Z,975.19
2023-04-01T11:04:42.926Z,975.17
2023-04-01T11:05:42.946Z,975.29
2023-04-01T11:06:42.916Z,975.20
2023-04-01T11:07:44.061Z,975.20
2023-04-01T11:08:42.896Z,975.20
2023-04-01T11:09:42.874Z,975.18
2023-04-01T11:10:42.900Z,975.20
2023-04-01T11:11:42.870Z,975.24
2023-04-01T11:12:42.850Z,975.13
2023-04-01T11:13:42.899Z,975.17
2023-04-01T11:14:42.855Z,975.16
2023-04-01T11:15:42.900Z,975.24
2023-04-01T11:16:42.929Z,975.24
2023-04-01T11:17:42.829Z,975.14
2023-04-01T11:18:42.787Z,975.17
2023-04-01T11:19:42.784Z,975.11
2023-04-01T11:20:42.771Z,975.15
2023-04-01T11:21:42.770Z,975.09
2023-04-01T11:22:42.757Z,975.11
2023-04-01T11:23:44.003Z,975.18
2023-04-01T11:24:42.724Z,975.23
2023-04-01T11:25:42.722Z,975.17
2023-04-01T11:26:42.771Z,975.20
2023-04-01T11:27:42.689Z,975.21
2023-04-01T11:28:42.683Z,975.16
2023-04-01T11:29:56.729Z,975.18
2023-04-01T11:30:44.665Z,975.17
2023-04-01T11:31:42.701Z,975.26
2023-04-01T11:32:42.687Z,975.13
2023-04-01T11:33:42.643Z,975.14
2023-04-01T11:34:42.630Z,975.23
2023-04-01T11:35:42.690Z,975.21
2023-04-01T11:36:43.994Z,975.23
2023-04-01T11:37:42.665Z,975.22
2023-04-01T11:38:42.596Z,975.19
2023-04-01T11:39:42.601Z,975.19
2023-04-01T11:40:42.561Z,975.15
2023-04-01T11:43:10.469Z,975.16
2023-04-01T11:44:30.620Z,975.21
2023-04-01T11:45:09.578Z,975.19
2023-04-01T11:46:09.615Z,975.28
2023-04-01T11:47:09.559Z,975.14
2023-04-01T11:48:09.632Z,975.25
2023-04-01T11:49:09.535Z,975.22
2023-04-01T11:50:09.522Z,975.22
2023-04-01T11:51:09.524Z,975.24
2023-04-01T11:52:09.502Z,975.24
2023-04-01T11:53:09.510Z,975.21
2023-04-01T11:54:09.481Z,975.30
2023-04-01T11:55:09.479Z,975.37
2023-04-01T11:56:09.465Z,975.32
2023-04-01T11:57:09.487Z,975.37
2023-04-01T11:58:09.441Z,975.36
2023-04-01T11:59:09.443Z,975.34
2023-04-01T12:00:09.426Z,975.47
2023-04-01T12:02:11.755Z,975.47
2023-04-01T12:03:09.451Z,975.47
2023-04-01T12:04:09.489Z,975.45
2023-04-01T12:05:09.371Z,975.50
2023-04-01T12:06:09.367Z,975.49
2023-04-01T12:07:09.362Z,975.55
2023-04-01T12:08:09.364Z,975.51
2023-04-01T12:09:09.329Z,975.52
2023-04-01T12:10:09.326Z,975.54
2023-04-01T12:11:09.308Z,975.47
2023-04-01T12:12:09.314Z,975.58
2023-04-01T12:13:09.284Z,975.55
2023-04-01T12:14:09.288Z,975.44
2023-04-01T12:15:09.271Z,975.48
2023-04-01T12:16:09.301Z,975.53
2023-04-01T12:17:09.254Z,975.53
2023-04-01T12:18:09.269Z,975.54
2023-04-01T12:19:09.230Z,975.49
2023-04-01T12:20:09.219Z,975.53
2023-04-01T12:21:09.209Z,975.50
2023-04-01T12:22:09.215Z,975.56
2023-04-01T12:23:09.182Z,975.55
2023-04-01T12:24:09.182Z,975.55
2023-04-01T12:25:09.169Z,975.64
2023-04-01T12:26:09.156Z,975.59
2023-04-01T12:27:09.157Z,975.58
2023-04-01T12:28:09.144Z,975.62
2023-04-01T12:29:09.140Z,975.59
2023-04-01T12:30:09.193Z,975.60
2023-04-01T12:31:09.103Z,975.55